<?xml version="1.0" encoding="UTF-8" standalone="no" ?>
<gpx xmlns="http://www.topografix.com/GPX/1/1" xmlns:xsi="http://www.w3.org/2001/XMLSchema-instance" xsi:schemaLocation="http://www.topografix.com/GPX/1/1 http://www.topografix.com/GPX/1/1/gpx.xsd" version="1.1" creator="VisuGPX - https://www.visugpx.com">
  <metadata>
    <name>Parcours VTT Aglo 2021</name>
  </metadata>
  <trk>
    <name><![CDATA[Rouge Cornillon La Roque sur Ceze]]></name>
    <extensions>
      <line xmlns="http://www.topografix.com/GPX/gpx_style/0/2">
        <color>fa0000</color>
        <width>4</width>
      </line>
    </extensions>
    <trkseg>
      <trkpt lat="44.21826" lon="4.48542">
        <ele>86</ele>
        <time>2021-07-04T13:06:14Z</time>
      </trkpt>
      <trkpt lat="44.21826" lon="4.48542">
        <ele>86</ele>
        <time>2021-07-04T13:06:14Z</time>
      </trkpt>
      <trkpt lat="44.2198" lon="4.48344">
        <ele>81</ele>
        <time>2021-07-04T13:07:03Z</time>
      </trkpt>
      <trkpt lat="44.22066" lon="4.48215">
        <ele>81</ele>
        <time>2021-07-04T13:07:32Z</time>
      </trkpt>
      <trkpt lat="44.22174" lon="4.48044">
        <ele>85</ele>
        <time>2021-07-04T13:08:11Z</time>
      </trkpt>
      <trkpt lat="44.22101" lon="4.47954">
        <ele>80</ele>
        <time>2021-07-04T13:08:33Z</time>
      </trkpt>
      <trkpt lat="44.21831" lon="4.47647">
        <ele>79</ele>
        <time>2021-07-04T13:09:55Z</time>
      </trkpt>
      <trkpt lat="44.21795" lon="4.47599">
        <ele>77</ele>
        <time>2021-07-04T13:10:06Z</time>
      </trkpt>
      <trkpt lat="44.2165" lon="4.47254">
        <ele>79</ele>
        <time>2021-07-04T13:11:13Z</time>
      </trkpt>
      <trkpt lat="44.21644" lon="4.47201">
        <ele>79</ele>
        <time>2021-07-04T13:11:22Z</time>
      </trkpt>
      <trkpt lat="44.21643" lon="4.47123">
        <ele>79</ele>
        <time>2021-07-04T13:11:35Z</time>
      </trkpt>
      <trkpt lat="44.2165" lon="4.47053">
        <ele>79</ele>
        <time>2021-07-04T13:11:47Z</time>
      </trkpt>
      <trkpt lat="44.21614" lon="4.4699">
        <ele>79</ele>
        <time>2021-07-04T13:12:01Z</time>
      </trkpt>
      <trkpt lat="44.21587" lon="4.46929">
        <ele>79</ele>
        <time>2021-07-04T13:12:13Z</time>
      </trkpt>
      <trkpt lat="44.21495" lon="4.47004">
        <ele>80</ele>
        <time>2021-07-04T13:12:37Z</time>
      </trkpt>
      <trkpt lat="44.21479" lon="4.47002">
        <ele>79</ele>
        <time>2021-07-04T13:12:41Z</time>
      </trkpt>
      <trkpt lat="44.21449" lon="4.47022">
        <ele>79</ele>
        <time>2021-07-04T13:12:49Z</time>
      </trkpt>
      <trkpt lat="44.21404" lon="4.47033">
        <ele>78</ele>
        <time>2021-07-04T13:13:00Z</time>
      </trkpt>
      <trkpt lat="44.21339" lon="4.46999">
        <ele>75</ele>
        <time>2021-07-04T13:13:16Z</time>
      </trkpt>
      <trkpt lat="44.21298" lon="4.46981">
        <ele>77</ele>
        <time>2021-07-04T13:13:26Z</time>
      </trkpt>
      <trkpt lat="44.212" lon="4.46974">
        <ele>80</ele>
        <time>2021-07-04T13:13:49Z</time>
      </trkpt>
      <trkpt lat="44.21152" lon="4.4696">
        <ele>80</ele>
        <time>2021-07-04T13:14:00Z</time>
      </trkpt>
      <trkpt lat="44.21117" lon="4.46945">
        <ele>79</ele>
        <time>2021-07-04T13:14:09Z</time>
      </trkpt>
      <trkpt lat="44.21097" lon="4.46954">
        <ele>79</ele>
        <time>2021-07-04T13:14:14Z</time>
      </trkpt>
      <trkpt lat="44.2107" lon="4.46951">
        <ele>79</ele>
        <time>2021-07-04T13:14:20Z</time>
      </trkpt>
      <trkpt lat="44.21029" lon="4.46935">
        <ele>79</ele>
        <time>2021-07-04T13:14:30Z</time>
      </trkpt>
      <trkpt lat="44.20998" lon="4.46931">
        <ele>79</ele>
        <time>2021-07-04T13:14:37Z</time>
      </trkpt>
      <trkpt lat="44.20974" lon="4.46923">
        <ele>79</ele>
        <time>2021-07-04T13:14:43Z</time>
      </trkpt>
      <trkpt lat="44.21021" lon="4.46862">
        <ele>80</ele>
        <time>2021-07-04T13:14:58Z</time>
      </trkpt>
      <trkpt lat="44.21047" lon="4.46815">
        <ele>79</ele>
        <time>2021-07-04T13:15:08Z</time>
      </trkpt>
      <trkpt lat="44.21046" lon="4.46802">
        <ele>79</ele>
        <time>2021-07-04T13:15:10Z</time>
      </trkpt>
      <trkpt lat="44.21027" lon="4.46778">
        <ele>78</ele>
        <time>2021-07-04T13:15:16Z</time>
      </trkpt>
      <trkpt lat="44.21021" lon="4.46765">
        <ele>78</ele>
        <time>2021-07-04T13:15:19Z</time>
      </trkpt>
      <trkpt lat="44.21007" lon="4.46772">
        <ele>78</ele>
        <time>2021-07-04T13:15:22Z</time>
      </trkpt>
      <trkpt lat="44.20988" lon="4.46768">
        <ele>77</ele>
        <time>2021-07-04T13:15:27Z</time>
      </trkpt>
      <trkpt lat="44.20858" lon="4.46687">
        <ele>75</ele>
        <time>2021-07-04T13:16:00Z</time>
      </trkpt>
      <trkpt lat="44.20758" lon="4.46602">
        <ele>76</ele>
        <time>2021-07-04T13:16:27Z</time>
      </trkpt>
      <trkpt lat="44.20706" lon="4.46563">
        <ele>78</ele>
        <time>2021-07-04T13:16:41Z</time>
      </trkpt>
      <trkpt lat="44.20663" lon="4.46536">
        <ele>80</ele>
        <time>2021-07-04T13:16:52Z</time>
      </trkpt>
      <trkpt lat="44.20621" lon="4.46525">
        <ele>81</ele>
        <time>2021-07-04T13:17:02Z</time>
      </trkpt>
      <trkpt lat="44.20573" lon="4.46528">
        <ele>81</ele>
        <time>2021-07-04T13:17:13Z</time>
      </trkpt>
      <trkpt lat="44.20559" lon="4.46498">
        <ele>82</ele>
        <time>2021-07-04T13:17:19Z</time>
      </trkpt>
      <trkpt lat="44.20549" lon="4.46502">
        <ele>82</ele>
        <time>2021-07-04T13:17:22Z</time>
      </trkpt>
      <trkpt lat="44.20527" lon="4.46498">
        <ele>81</ele>
        <time>2021-07-04T13:17:27Z</time>
      </trkpt>
      <trkpt lat="44.20476" lon="4.46453">
        <ele>83</ele>
        <time>2021-07-04T13:17:41Z</time>
      </trkpt>
      <trkpt lat="44.20403" lon="4.46367">
        <ele>86</ele>
        <time>2021-07-04T13:18:03Z</time>
      </trkpt>
      <trkpt lat="44.20363" lon="4.46339">
        <ele>86</ele>
        <time>2021-07-04T13:18:14Z</time>
      </trkpt>
      <trkpt lat="44.2033" lon="4.46298">
        <ele>87</ele>
        <time>2021-07-04T13:18:24Z</time>
      </trkpt>
      <trkpt lat="44.20301" lon="4.4629">
        <ele>90</ele>
        <time>2021-07-04T13:18:31Z</time>
      </trkpt>
      <trkpt lat="44.20248" lon="4.46244">
        <ele>90</ele>
        <time>2021-07-04T13:18:45Z</time>
      </trkpt>
      <trkpt lat="44.20229" lon="4.46215">
        <ele>93</ele>
        <time>2021-07-04T13:18:52Z</time>
      </trkpt>
      <trkpt lat="44.20213" lon="4.46157">
        <ele>95</ele>
        <time>2021-07-04T13:19:02Z</time>
      </trkpt>
      <trkpt lat="44.20144" lon="4.46117">
        <ele>98</ele>
        <time>2021-07-04T13:19:20Z</time>
      </trkpt>
      <trkpt lat="44.20048" lon="4.4612">
        <ele>102</ele>
        <time>2021-07-04T13:19:42Z</time>
      </trkpt>
      <trkpt lat="44.20054" lon="4.46149">
        <ele>101</ele>
        <time>2021-07-04T13:19:47Z</time>
      </trkpt>
      <trkpt lat="44.20119" lon="4.46276">
        <ele>103</ele>
        <time>2021-07-04T13:20:14Z</time>
      </trkpt>
      <trkpt lat="44.20041" lon="4.46331">
        <ele>103</ele>
        <time>2021-07-04T13:20:34Z</time>
      </trkpt>
      <trkpt lat="44.19973" lon="4.46327">
        <ele>106</ele>
        <time>2021-07-04T13:20:50Z</time>
      </trkpt>
      <trkpt lat="44.19906" lon="4.46309">
        <ele>111</ele>
        <time>2021-07-04T13:21:06Z</time>
      </trkpt>
      <trkpt lat="44.19841" lon="4.46279">
        <ele>119</ele>
        <time>2021-07-04T13:21:22Z</time>
      </trkpt>
      <trkpt lat="44.19817" lon="4.46263">
        <ele>124</ele>
        <time>2021-07-04T13:21:28Z</time>
      </trkpt>
      <trkpt lat="44.1978" lon="4.46213">
        <ele>131</ele>
        <time>2021-07-04T13:21:40Z</time>
      </trkpt>
      <trkpt lat="44.1966" lon="4.46032">
        <ele>162</ele>
        <time>2021-07-04T13:22:21Z</time>
      </trkpt>
      <trkpt lat="44.19604" lon="4.45951">
        <ele>170</ele>
        <time>2021-07-04T13:22:40Z</time>
      </trkpt>
      <trkpt lat="44.19571" lon="4.45909">
        <ele>172</ele>
        <time>2021-07-04T13:22:51Z</time>
      </trkpt>
      <trkpt lat="44.1955" lon="4.4591">
        <ele>171</ele>
        <time>2021-07-04T13:22:55Z</time>
      </trkpt>
      <trkpt lat="44.1954" lon="4.45901">
        <ele>171</ele>
        <time>2021-07-04T13:22:58Z</time>
      </trkpt>
      <trkpt lat="44.19493" lon="4.45775">
        <ele>180</ele>
        <time>2021-07-04T13:23:22Z</time>
      </trkpt>
      <trkpt lat="44.19467" lon="4.45733">
        <ele>184</ele>
        <time>2021-07-04T13:23:31Z</time>
      </trkpt>
      <trkpt lat="44.1943" lon="4.45734">
        <ele>187</ele>
        <time>2021-07-04T13:23:40Z</time>
      </trkpt>
      <trkpt lat="44.19388" lon="4.45776">
        <ele>187</ele>
        <time>2021-07-04T13:23:52Z</time>
      </trkpt>
      <trkpt lat="44.19356" lon="4.45812">
        <ele>185</ele>
        <time>2021-07-04T13:24:02Z</time>
      </trkpt>
      <trkpt lat="44.19362" lon="4.45757">
        <ele>191</ele>
        <time>2021-07-04T13:24:11Z</time>
      </trkpt>
      <trkpt lat="44.19355" lon="4.45607">
        <ele>204</ele>
        <time>2021-07-04T13:24:36Z</time>
      </trkpt>
      <trkpt lat="44.19314" lon="4.45557">
        <ele>211</ele>
        <time>2021-07-04T13:24:49Z</time>
      </trkpt>
      <trkpt lat="44.19298" lon="4.45477">
        <ele>210</ele>
        <time>2021-07-04T13:25:03Z</time>
      </trkpt>
      <trkpt lat="44.1923" lon="4.4535">
        <ele>196</ele>
        <time>2021-07-04T13:25:29Z</time>
      </trkpt>
      <trkpt lat="44.19213" lon="4.45328">
        <ele>192</ele>
        <time>2021-07-04T13:25:35Z</time>
      </trkpt>
      <trkpt lat="44.19184" lon="4.45279">
        <ele>188</ele>
        <time>2021-07-04T13:25:45Z</time>
      </trkpt>
      <trkpt lat="44.19137" lon="4.45077">
        <ele>191</ele>
        <time>2021-07-04T13:26:21Z</time>
      </trkpt>
      <trkpt lat="44.19103" lon="4.45057">
        <ele>187</ele>
        <time>2021-07-04T13:26:30Z</time>
      </trkpt>
      <trkpt lat="44.19071" lon="4.44977">
        <ele>187</ele>
        <time>2021-07-04T13:26:45Z</time>
      </trkpt>
      <trkpt lat="44.19002" lon="4.44919">
        <ele>182</ele>
        <time>2021-07-04T13:27:04Z</time>
      </trkpt>
      <trkpt lat="44.1897" lon="4.44913">
        <ele>178</ele>
        <time>2021-07-04T13:27:11Z</time>
      </trkpt>
      <trkpt lat="44.18921" lon="4.44931">
        <ele>171</ele>
        <time>2021-07-04T13:27:23Z</time>
      </trkpt>
      <trkpt lat="44.18883" lon="4.44933">
        <ele>167</ele>
        <time>2021-07-04T13:27:32Z</time>
      </trkpt>
      <trkpt lat="44.18862" lon="4.44945">
        <ele>164</ele>
        <time>2021-07-04T13:27:37Z</time>
      </trkpt>
      <trkpt lat="44.18818" lon="4.44943">
        <ele>159</ele>
        <time>2021-07-04T13:27:47Z</time>
      </trkpt>
      <trkpt lat="44.1879" lon="4.44948">
        <ele>156</ele>
        <time>2021-07-04T13:27:54Z</time>
      </trkpt>
      <trkpt lat="44.18769" lon="4.44976">
        <ele>155</ele>
        <time>2021-07-04T13:28:01Z</time>
      </trkpt>
      <trkpt lat="44.18762" lon="4.44979">
        <ele>154</ele>
        <time>2021-07-04T13:28:03Z</time>
      </trkpt>
      <trkpt lat="44.18722" lon="4.449">
        <ele>152</ele>
        <time>2021-07-04T13:28:19Z</time>
      </trkpt>
      <trkpt lat="44.18679" lon="4.44832">
        <ele>147</ele>
        <time>2021-07-04T13:28:34Z</time>
      </trkpt>
      <trkpt lat="44.18597" lon="4.44781">
        <ele>142</ele>
        <time>2021-07-04T13:28:55Z</time>
      </trkpt>
      <trkpt lat="44.18508" lon="4.44769">
        <ele>142</ele>
        <time>2021-07-04T13:29:16Z</time>
      </trkpt>
      <trkpt lat="44.18469" lon="4.44771">
        <ele>140</ele>
        <time>2021-07-04T13:29:25Z</time>
      </trkpt>
      <trkpt lat="44.18447" lon="4.44776">
        <ele>139</ele>
        <time>2021-07-04T13:29:30Z</time>
      </trkpt>
      <trkpt lat="44.18422" lon="4.44771">
        <ele>136</ele>
        <time>2021-07-04T13:29:36Z</time>
      </trkpt>
      <trkpt lat="44.18355" lon="4.44792">
        <ele>133</ele>
        <time>2021-07-04T13:29:52Z</time>
      </trkpt>
      <trkpt lat="44.18338" lon="4.44823">
        <ele>134</ele>
        <time>2021-07-04T13:29:59Z</time>
      </trkpt>
      <trkpt lat="44.18324" lon="4.44878">
        <ele>134</ele>
        <time>2021-07-04T13:30:08Z</time>
      </trkpt>
      <trkpt lat="44.18303" lon="4.44922">
        <ele>132</ele>
        <time>2021-07-04T13:30:17Z</time>
      </trkpt>
      <trkpt lat="44.18276" lon="4.45011">
        <ele>131</ele>
        <time>2021-07-04T13:30:33Z</time>
      </trkpt>
      <trkpt lat="44.18278" lon="4.45035">
        <ele>132</ele>
        <time>2021-07-04T13:30:37Z</time>
      </trkpt>
      <trkpt lat="44.18265" lon="4.45057">
        <ele>131</ele>
        <time>2021-07-04T13:30:42Z</time>
      </trkpt>
      <trkpt lat="44.18254" lon="4.45101">
        <ele>129</ele>
        <time>2021-07-04T13:30:50Z</time>
      </trkpt>
      <trkpt lat="44.18249" lon="4.45181">
        <ele>125</ele>
        <time>2021-07-04T13:31:03Z</time>
      </trkpt>
      <trkpt lat="44.18238" lon="4.45234">
        <ele>122</ele>
        <time>2021-07-04T13:31:13Z</time>
      </trkpt>
      <trkpt lat="44.18245" lon="4.45256">
        <ele>122</ele>
        <time>2021-07-04T13:31:17Z</time>
      </trkpt>
      <trkpt lat="44.18261" lon="4.45355">
        <ele>125</ele>
        <time>2021-07-04T13:31:34Z</time>
      </trkpt>
      <trkpt lat="44.18259" lon="4.45424">
        <ele>124</ele>
        <time>2021-07-04T13:31:45Z</time>
      </trkpt>
      <trkpt lat="44.18241" lon="4.45499">
        <ele>122</ele>
        <time>2021-07-04T13:31:59Z</time>
      </trkpt>
      <trkpt lat="44.18235" lon="4.45586">
        <ele>118</ele>
        <time>2021-07-04T13:32:13Z</time>
      </trkpt>
      <trkpt lat="44.18248" lon="4.456">
        <ele>121</ele>
        <time>2021-07-04T13:32:17Z</time>
      </trkpt>
      <trkpt lat="44.18281" lon="4.45609">
        <ele>132</ele>
        <time>2021-07-04T13:32:25Z</time>
      </trkpt>
      <trkpt lat="44.18291" lon="4.45624">
        <ele>135</ele>
        <time>2021-07-04T13:32:28Z</time>
      </trkpt>
      <trkpt lat="44.18255" lon="4.45712">
        <ele>128</ele>
        <time>2021-07-04T13:32:45Z</time>
      </trkpt>
      <trkpt lat="44.18247" lon="4.45746">
        <ele>130</ele>
        <time>2021-07-04T13:32:51Z</time>
      </trkpt>
      <trkpt lat="44.18255" lon="4.45795">
        <ele>139</ele>
        <time>2021-07-04T13:33:00Z</time>
      </trkpt>
      <trkpt lat="44.18228" lon="4.45867">
        <ele>138</ele>
        <time>2021-07-04T13:33:13Z</time>
      </trkpt>
      <trkpt lat="44.18218" lon="4.4594">
        <ele>140</ele>
        <time>2021-07-04T13:33:26Z</time>
      </trkpt>
      <trkpt lat="44.18219" lon="4.45999">
        <ele>141</ele>
        <time>2021-07-04T13:33:36Z</time>
      </trkpt>
      <trkpt lat="44.18234" lon="4.46036">
        <ele>144</ele>
        <time>2021-07-04T13:33:43Z</time>
      </trkpt>
      <trkpt lat="44.18271" lon="4.46049">
        <ele>151</ele>
        <time>2021-07-04T13:33:52Z</time>
      </trkpt>
      <trkpt lat="44.18314" lon="4.46042">
        <ele>157</ele>
        <time>2021-07-04T13:34:02Z</time>
      </trkpt>
      <trkpt lat="44.18334" lon="4.46059">
        <ele>159</ele>
        <time>2021-07-04T13:34:07Z</time>
      </trkpt>
      <trkpt lat="44.18331" lon="4.46098">
        <ele>157</ele>
        <time>2021-07-04T13:34:14Z</time>
      </trkpt>
      <trkpt lat="44.18325" lon="4.46121">
        <ele>157</ele>
        <time>2021-07-04T13:34:18Z</time>
      </trkpt>
      <trkpt lat="44.18339" lon="4.46113">
        <ele>159</ele>
        <time>2021-07-04T13:34:21Z</time>
      </trkpt>
      <trkpt lat="44.18356" lon="4.46141">
        <ele>161</ele>
        <time>2021-07-04T13:34:28Z</time>
      </trkpt>
      <trkpt lat="44.18385" lon="4.46151">
        <ele>164</ele>
        <time>2021-07-04T13:34:35Z</time>
      </trkpt>
      <trkpt lat="44.18443" lon="4.4621">
        <ele>165</ele>
        <time>2021-07-04T13:34:51Z</time>
      </trkpt>
      <trkpt lat="44.18494" lon="4.46231">
        <ele>165</ele>
        <time>2021-07-04T13:35:04Z</time>
      </trkpt>
      <trkpt lat="44.18543" lon="4.46242">
        <ele>165</ele>
        <time>2021-07-04T13:35:15Z</time>
      </trkpt>
      <trkpt lat="44.18555" lon="4.46266">
        <ele>163</ele>
        <time>2021-07-04T13:35:20Z</time>
      </trkpt>
      <trkpt lat="44.18616" lon="4.46272">
        <ele>164</ele>
        <time>2021-07-04T13:35:35Z</time>
      </trkpt>
      <trkpt lat="44.18656" lon="4.46286">
        <ele>163</ele>
        <time>2021-07-04T13:35:44Z</time>
      </trkpt>
      <trkpt lat="44.18685" lon="4.4631">
        <ele>161</ele>
        <time>2021-07-04T13:35:52Z</time>
      </trkpt>
      <trkpt lat="44.18753" lon="4.46306">
        <ele>165</ele>
        <time>2021-07-04T13:36:08Z</time>
      </trkpt>
      <trkpt lat="44.18791" lon="4.46327">
        <ele>165</ele>
        <time>2021-07-04T13:36:17Z</time>
      </trkpt>
      <trkpt lat="44.18833" lon="4.46358">
        <ele>165</ele>
        <time>2021-07-04T13:36:29Z</time>
      </trkpt>
      <trkpt lat="44.18908" lon="4.4636">
        <ele>168</ele>
        <time>2021-07-04T13:36:46Z</time>
      </trkpt>
      <trkpt lat="44.1895" lon="4.46367">
        <ele>169</ele>
        <time>2021-07-04T13:36:56Z</time>
      </trkpt>
      <trkpt lat="44.1899" lon="4.46431">
        <ele>165</ele>
        <time>2021-07-04T13:37:10Z</time>
      </trkpt>
      <trkpt lat="44.19012" lon="4.46443">
        <ele>165</ele>
        <time>2021-07-04T13:37:16Z</time>
      </trkpt>
      <trkpt lat="44.19022" lon="4.46479">
        <ele>163</ele>
        <time>2021-07-04T13:37:22Z</time>
      </trkpt>
      <trkpt lat="44.19037" lon="4.46598">
        <ele>154</ele>
        <time>2021-07-04T13:37:42Z</time>
      </trkpt>
      <trkpt lat="44.19048" lon="4.46638">
        <ele>151</ele>
        <time>2021-07-04T13:37:50Z</time>
      </trkpt>
      <trkpt lat="44.19059" lon="4.46655">
        <ele>151</ele>
        <time>2021-07-04T13:37:53Z</time>
      </trkpt>
      <trkpt lat="44.19051" lon="4.46696">
        <ele>146</ele>
        <time>2021-07-04T13:38:00Z</time>
      </trkpt>
      <trkpt lat="44.19056" lon="4.4678">
        <ele>140</ele>
        <time>2021-07-04T13:38:15Z</time>
      </trkpt>
      <trkpt lat="44.1907" lon="4.46865">
        <ele>134</ele>
        <time>2021-07-04T13:38:29Z</time>
      </trkpt>
      <trkpt lat="44.19074" lon="4.46926">
        <ele>128</ele>
        <time>2021-07-04T13:38:39Z</time>
      </trkpt>
      <trkpt lat="44.19125" lon="4.47092">
        <ele>124</ele>
        <time>2021-07-04T13:39:10Z</time>
      </trkpt>
      <trkpt lat="44.19146" lon="4.47193">
        <ele>118</ele>
        <time>2021-07-04T13:39:27Z</time>
      </trkpt>
      <trkpt lat="44.19161" lon="4.4722">
        <ele>118</ele>
        <time>2021-07-04T13:39:33Z</time>
      </trkpt>
      <trkpt lat="44.19183" lon="4.47233">
        <ele>122</ele>
        <time>2021-07-04T13:39:39Z</time>
      </trkpt>
      <trkpt lat="44.19195" lon="4.47256">
        <ele>122</ele>
        <time>2021-07-04T13:39:43Z</time>
      </trkpt>
      <trkpt lat="44.19241" lon="4.47415">
        <ele>113</ele>
        <time>2021-07-04T13:40:12Z</time>
      </trkpt>
      <trkpt lat="44.19209" lon="4.47359">
        <ele>113</ele>
        <time>2021-07-04T13:40:24Z</time>
      </trkpt>
      <trkpt lat="44.19184" lon="4.4734">
        <ele>110</ele>
        <time>2021-07-04T13:40:31Z</time>
      </trkpt>
      <trkpt lat="44.19138" lon="4.47331">
        <ele>102</ele>
        <time>2021-07-04T13:40:42Z</time>
      </trkpt>
      <trkpt lat="44.19079" lon="4.47238">
        <ele>98</ele>
        <time>2021-07-04T13:41:02Z</time>
      </trkpt>
      <trkpt lat="44.1906" lon="4.47192">
        <ele>100</ele>
        <time>2021-07-04T13:41:11Z</time>
      </trkpt>
      <trkpt lat="44.19009" lon="4.47156">
        <ele>95</ele>
        <time>2021-07-04T13:41:25Z</time>
      </trkpt>
      <trkpt lat="44.1897" lon="4.47123">
        <ele>95</ele>
        <time>2021-07-04T13:41:35Z</time>
      </trkpt>
      <trkpt lat="44.18946" lon="4.47098">
        <ele>96</ele>
        <time>2021-07-04T13:41:42Z</time>
      </trkpt>
      <trkpt lat="44.18919" lon="4.4706">
        <ele>98</ele>
        <time>2021-07-04T13:41:51Z</time>
      </trkpt>
      <trkpt lat="44.18854" lon="4.47003">
        <ele>97</ele>
        <time>2021-07-04T13:42:09Z</time>
      </trkpt>
      <trkpt lat="44.18732" lon="4.46911">
        <ele>101</ele>
        <time>2021-07-04T13:42:42Z</time>
      </trkpt>
      <trkpt lat="44.18702" lon="4.46897">
        <ele>101</ele>
        <time>2021-07-04T13:42:49Z</time>
      </trkpt>
      <trkpt lat="44.18662" lon="4.46891">
        <ele>101</ele>
        <time>2021-07-04T13:42:58Z</time>
      </trkpt>
      <trkpt lat="44.18601" lon="4.46902">
        <ele>99</ele>
        <time>2021-07-04T13:43:13Z</time>
      </trkpt>
      <trkpt lat="44.18576" lon="4.46926">
        <ele>96</ele>
        <time>2021-07-04T13:43:20Z</time>
      </trkpt>
      <trkpt lat="44.18553" lon="4.46953">
        <ele>94</ele>
        <time>2021-07-04T13:43:27Z</time>
      </trkpt>
      <trkpt lat="44.18596" lon="4.4697">
        <ele>93</ele>
        <time>2021-07-04T13:43:37Z</time>
      </trkpt>
      <trkpt lat="44.1864" lon="4.47005">
        <ele>91</ele>
        <time>2021-07-04T13:43:49Z</time>
      </trkpt>
      <trkpt lat="44.18664" lon="4.47038">
        <ele>89</ele>
        <time>2021-07-04T13:43:57Z</time>
      </trkpt>
      <trkpt lat="44.18705" lon="4.47085">
        <ele>85</ele>
        <time>2021-07-04T13:44:09Z</time>
      </trkpt>
      <trkpt lat="44.18713" lon="4.47112">
        <ele>84</ele>
        <time>2021-07-04T13:44:14Z</time>
      </trkpt>
      <trkpt lat="44.18711" lon="4.4715">
        <ele>82</ele>
        <time>2021-07-04T13:44:21Z</time>
      </trkpt>
      <trkpt lat="44.18715" lon="4.47189">
        <ele>80</ele>
        <time>2021-07-04T13:44:27Z</time>
      </trkpt>
      <trkpt lat="44.18742" lon="4.47279">
        <ele>78</ele>
        <time>2021-07-04T13:44:44Z</time>
      </trkpt>
      <trkpt lat="44.18747" lon="4.47327">
        <ele>77</ele>
        <time>2021-07-04T13:44:52Z</time>
      </trkpt>
      <trkpt lat="44.18758" lon="4.47345">
        <ele>77</ele>
        <time>2021-07-04T13:44:56Z</time>
      </trkpt>
      <trkpt lat="44.18724" lon="4.47383">
        <ele>79</ele>
        <time>2021-07-04T13:45:06Z</time>
      </trkpt>
      <trkpt lat="44.18698" lon="4.47381">
        <ele>79</ele>
        <time>2021-07-04T13:45:12Z</time>
      </trkpt>
      <trkpt lat="44.18681" lon="4.4736">
        <ele>79</ele>
        <time>2021-07-04T13:45:17Z</time>
      </trkpt>
      <trkpt lat="44.18674" lon="4.47329">
        <ele>80</ele>
        <time>2021-07-04T13:45:23Z</time>
      </trkpt>
      <trkpt lat="44.18665" lon="4.47324">
        <ele>80</ele>
        <time>2021-07-04T13:45:25Z</time>
      </trkpt>
      <trkpt lat="44.18654" lon="4.47323">
        <ele>80</ele>
        <time>2021-07-04T13:45:27Z</time>
      </trkpt>
      <trkpt lat="44.18654" lon="4.47339">
        <ele>80</ele>
        <time>2021-07-04T13:45:30Z</time>
      </trkpt>
      <trkpt lat="44.18665" lon="4.47388">
        <ele>79</ele>
        <time>2021-07-04T13:45:39Z</time>
      </trkpt>
      <trkpt lat="44.18675" lon="4.47455">
        <ele>78</ele>
        <time>2021-07-04T13:45:50Z</time>
      </trkpt>
      <trkpt lat="44.18673" lon="4.47474">
        <ele>78</ele>
        <time>2021-07-04T13:45:53Z</time>
      </trkpt>
      <trkpt lat="44.18665" lon="4.47501">
        <ele>78</ele>
        <time>2021-07-04T13:45:58Z</time>
      </trkpt>
      <trkpt lat="44.1865" lon="4.47503">
        <ele>78</ele>
        <time>2021-07-04T13:46:02Z</time>
      </trkpt>
      <trkpt lat="44.18648" lon="4.47514">
        <ele>78</ele>
        <time>2021-07-04T13:46:04Z</time>
      </trkpt>
      <trkpt lat="44.18654" lon="4.47529">
        <ele>78</ele>
        <time>2021-07-04T13:46:07Z</time>
      </trkpt>
      <trkpt lat="44.18671" lon="4.47545">
        <ele>78</ele>
        <time>2021-07-04T13:46:11Z</time>
      </trkpt>
      <trkpt lat="44.1862" lon="4.4781">
        <ele>81</ele>
        <time>2021-07-04T13:46:57Z</time>
      </trkpt>
      <trkpt lat="44.18545" lon="4.47739">
        <ele>80</ele>
        <time>2021-07-04T13:47:19Z</time>
      </trkpt>
      <trkpt lat="44.18522" lon="4.47731">
        <ele>81</ele>
        <time>2021-07-04T13:47:24Z</time>
      </trkpt>
      <trkpt lat="44.18356" lon="4.47723">
        <ele>85</ele>
        <time>2021-07-04T13:48:03Z</time>
      </trkpt>
      <trkpt lat="44.18353" lon="4.4775">
        <ele>85</ele>
        <time>2021-07-04T13:48:07Z</time>
      </trkpt>
      <trkpt lat="44.18315" lon="4.47864">
        <ele>89</ele>
        <time>2021-07-04T13:48:28Z</time>
      </trkpt>
      <trkpt lat="44.18257" lon="4.47928">
        <ele>92</ele>
        <time>2021-07-04T13:48:46Z</time>
      </trkpt>
      <trkpt lat="44.18235" lon="4.47992">
        <ele>94</ele>
        <time>2021-07-04T13:48:58Z</time>
      </trkpt>
      <trkpt lat="44.18183" lon="4.48121">
        <ele>100</ele>
        <time>2021-07-04T13:49:22Z</time>
      </trkpt>
      <trkpt lat="44.18126" lon="4.48235">
        <ele>101</ele>
        <time>2021-07-04T13:49:46Z</time>
      </trkpt>
      <trkpt lat="44.18022" lon="4.48467">
        <ele>103</ele>
        <time>2021-07-04T13:50:31Z</time>
      </trkpt>
      <trkpt lat="44.18014" lon="4.48511">
        <ele>104</ele>
        <time>2021-07-04T13:50:39Z</time>
      </trkpt>
      <trkpt lat="44.18017" lon="4.48551">
        <ele>104</ele>
        <time>2021-07-04T13:50:46Z</time>
      </trkpt>
      <trkpt lat="44.18003" lon="4.4868">
        <ele>108</ele>
        <time>2021-07-04T13:51:08Z</time>
      </trkpt>
      <trkpt lat="44.17978" lon="4.4869">
        <ele>107</ele>
        <time>2021-07-04T13:51:14Z</time>
      </trkpt>
      <trkpt lat="44.17955" lon="4.48744">
        <ele>109</ele>
        <time>2021-07-04T13:51:24Z</time>
      </trkpt>
      <trkpt lat="44.17942" lon="4.48782">
        <ele>110</ele>
        <time>2021-07-04T13:51:31Z</time>
      </trkpt>
      <trkpt lat="44.17922" lon="4.48812">
        <ele>111</ele>
        <time>2021-07-04T13:51:38Z</time>
      </trkpt>
      <trkpt lat="44.17849" lon="4.48879">
        <ele>110</ele>
        <time>2021-07-04T13:51:59Z</time>
      </trkpt>
      <trkpt lat="44.17769" lon="4.48934">
        <ele>106</ele>
        <time>2021-07-04T13:52:19Z</time>
      </trkpt>
      <trkpt lat="44.17762" lon="4.48941">
        <ele>105</ele>
        <time>2021-07-04T13:52:21Z</time>
      </trkpt>
      <trkpt lat="44.17748" lon="4.48974">
        <ele>106</ele>
        <time>2021-07-04T13:52:28Z</time>
      </trkpt>
      <trkpt lat="44.17732" lon="4.48999">
        <ele>107</ele>
        <time>2021-07-04T13:52:33Z</time>
      </trkpt>
      <trkpt lat="44.17675" lon="4.49041">
        <ele>107</ele>
        <time>2021-07-04T13:52:49Z</time>
      </trkpt>
      <trkpt lat="44.1765" lon="4.4907">
        <ele>110</ele>
        <time>2021-07-04T13:52:56Z</time>
      </trkpt>
      <trkpt lat="44.17646" lon="4.49086">
        <ele>111</ele>
        <time>2021-07-04T13:52:59Z</time>
      </trkpt>
      <trkpt lat="44.17644" lon="4.4912">
        <ele>112</ele>
        <time>2021-07-04T13:53:05Z</time>
      </trkpt>
      <trkpt lat="44.17661" lon="4.49182">
        <ele>112</ele>
        <time>2021-07-04T13:53:16Z</time>
      </trkpt>
      <trkpt lat="44.17663" lon="4.49218">
        <ele>113</ele>
        <time>2021-07-04T13:53:22Z</time>
      </trkpt>
      <trkpt lat="44.17637" lon="4.4928">
        <ele>116</ele>
        <time>2021-07-04T13:53:34Z</time>
      </trkpt>
      <trkpt lat="44.1759" lon="4.49354">
        <ele>117</ele>
        <time>2021-07-04T13:53:50Z</time>
      </trkpt>
      <trkpt lat="44.17573" lon="4.49404">
        <ele>118</ele>
        <time>2021-07-04T13:54:00Z</time>
      </trkpt>
      <trkpt lat="44.17569" lon="4.49495">
        <ele>123</ele>
        <time>2021-07-04T13:54:15Z</time>
      </trkpt>
      <trkpt lat="44.17579" lon="4.49547">
        <ele>123</ele>
        <time>2021-07-04T13:54:24Z</time>
      </trkpt>
      <trkpt lat="44.17588" lon="4.49612">
        <ele>123</ele>
        <time>2021-07-04T13:54:35Z</time>
      </trkpt>
      <trkpt lat="44.17591" lon="4.49766">
        <ele>128</ele>
        <time>2021-07-04T13:55:01Z</time>
      </trkpt>
      <trkpt lat="44.17552" lon="4.49884">
        <ele>133</ele>
        <time>2021-07-04T13:55:23Z</time>
      </trkpt>
      <trkpt lat="44.17523" lon="4.49994">
        <ele>139</ele>
        <time>2021-07-04T13:55:42Z</time>
      </trkpt>
      <trkpt lat="44.17496" lon="4.50122">
        <ele>146</ele>
        <time>2021-07-04T13:56:05Z</time>
      </trkpt>
      <trkpt lat="44.17476" lon="4.50309">
        <ele>151</ele>
        <time>2021-07-04T13:56:36Z</time>
      </trkpt>
      <trkpt lat="44.17465" lon="4.50383">
        <ele>152</ele>
        <time>2021-07-04T13:56:49Z</time>
      </trkpt>
      <trkpt lat="44.17474" lon="4.50415">
        <ele>151</ele>
        <time>2021-07-04T13:56:55Z</time>
      </trkpt>
      <trkpt lat="44.17477" lon="4.50462">
        <ele>151</ele>
        <time>2021-07-04T13:57:03Z</time>
      </trkpt>
      <trkpt lat="44.17485" lon="4.50496">
        <ele>149</ele>
        <time>2021-07-04T13:57:09Z</time>
      </trkpt>
      <trkpt lat="44.17497" lon="4.50504">
        <ele>147</ele>
        <time>2021-07-04T13:57:12Z</time>
      </trkpt>
      <trkpt lat="44.17514" lon="4.50404">
        <ele>149</ele>
        <time>2021-07-04T13:57:29Z</time>
      </trkpt>
      <trkpt lat="44.17565" lon="4.50408">
        <ele>150</ele>
        <time>2021-07-04T13:57:41Z</time>
      </trkpt>
      <trkpt lat="44.17587" lon="4.50427">
        <ele>150</ele>
        <time>2021-07-04T13:57:47Z</time>
      </trkpt>
      <trkpt lat="44.17574" lon="4.5048">
        <ele>148</ele>
        <time>2021-07-04T13:57:56Z</time>
      </trkpt>
      <trkpt lat="44.17575" lon="4.50586">
        <ele>145</ele>
        <time>2021-07-04T13:58:14Z</time>
      </trkpt>
      <trkpt lat="44.17596" lon="4.5074">
        <ele>137</ele>
        <time>2021-07-04T13:58:40Z</time>
      </trkpt>
      <trkpt lat="44.17621" lon="4.50797">
        <ele>138</ele>
        <time>2021-07-04T13:58:51Z</time>
      </trkpt>
      <trkpt lat="44.17642" lon="4.50879">
        <ele>138</ele>
        <time>2021-07-04T13:59:06Z</time>
      </trkpt>
      <trkpt lat="44.17654" lon="4.50958">
        <ele>135</ele>
        <time>2021-07-04T13:59:20Z</time>
      </trkpt>
      <trkpt lat="44.17666" lon="4.50984">
        <ele>135</ele>
        <time>2021-07-04T13:59:25Z</time>
      </trkpt>
      <trkpt lat="44.17696" lon="4.51018">
        <ele>137</ele>
        <time>2021-07-04T13:59:34Z</time>
      </trkpt>
      <trkpt lat="44.17704" lon="4.51035">
        <ele>138</ele>
        <time>2021-07-04T13:59:37Z</time>
      </trkpt>
      <trkpt lat="44.17689" lon="4.5107">
        <ele>136</ele>
        <time>2021-07-04T13:59:44Z</time>
      </trkpt>
      <trkpt lat="44.17689" lon="4.51157">
        <ele>133</ele>
        <time>2021-07-04T13:59:59Z</time>
      </trkpt>
      <trkpt lat="44.17693" lon="4.51192">
        <ele>133</ele>
        <time>2021-07-04T14:00:05Z</time>
      </trkpt>
      <trkpt lat="44.17725" lon="4.51294">
        <ele>134</ele>
        <time>2021-07-04T14:00:23Z</time>
      </trkpt>
      <trkpt lat="44.17734" lon="4.51392">
        <ele>131</ele>
        <time>2021-07-04T14:00:40Z</time>
      </trkpt>
      <trkpt lat="44.17741" lon="4.51436">
        <ele>131</ele>
        <time>2021-07-04T14:00:47Z</time>
      </trkpt>
      <trkpt lat="44.17746" lon="4.51509">
        <ele>130</ele>
        <time>2021-07-04T14:01:00Z</time>
      </trkpt>
      <trkpt lat="44.1782" lon="4.51637">
        <ele>139</ele>
        <time>2021-07-04T14:01:27Z</time>
      </trkpt>
      <trkpt lat="44.17827" lon="4.51722">
        <ele>140</ele>
        <time>2021-07-04T14:01:41Z</time>
      </trkpt>
      <trkpt lat="44.17834" lon="4.51864">
        <ele>142</ele>
        <time>2021-07-04T14:02:05Z</time>
      </trkpt>
      <trkpt lat="44.17847" lon="4.51984">
        <ele>139</ele>
        <time>2021-07-04T14:02:26Z</time>
      </trkpt>
      <trkpt lat="44.17867" lon="4.51986">
        <ele>139</ele>
        <time>2021-07-04T14:02:30Z</time>
      </trkpt>
      <trkpt lat="44.17892" lon="4.51944">
        <ele>142</ele>
        <time>2021-07-04T14:02:39Z</time>
      </trkpt>
      <trkpt lat="44.17925" lon="4.51945">
        <ele>145</ele>
        <time>2021-07-04T14:02:47Z</time>
      </trkpt>
      <trkpt lat="44.17963" lon="4.51972">
        <ele>150</ele>
        <time>2021-07-04T14:02:57Z</time>
      </trkpt>
      <trkpt lat="44.17976" lon="4.52059">
        <ele>144</ele>
        <time>2021-07-04T14:03:12Z</time>
      </trkpt>
      <trkpt lat="44.18003" lon="4.52104">
        <ele>144</ele>
        <time>2021-07-04T14:03:22Z</time>
      </trkpt>
      <trkpt lat="44.18094" lon="4.52207">
        <ele>143</ele>
        <time>2021-07-04T14:03:49Z</time>
      </trkpt>
      <trkpt lat="44.18138" lon="4.52215">
        <ele>146</ele>
        <time>2021-07-04T14:04:00Z</time>
      </trkpt>
      <trkpt lat="44.18216" lon="4.52189">
        <ele>156</ele>
        <time>2021-07-04T14:04:18Z</time>
      </trkpt>
      <trkpt lat="44.18236" lon="4.52185">
        <ele>157</ele>
        <time>2021-07-04T14:04:23Z</time>
      </trkpt>
      <trkpt lat="44.18262" lon="4.52184">
        <ele>155</ele>
        <time>2021-07-04T14:04:29Z</time>
      </trkpt>
      <trkpt lat="44.1831" lon="4.52164">
        <ele>158</ele>
        <time>2021-07-04T14:04:41Z</time>
      </trkpt>
      <trkpt lat="44.1832" lon="4.52141">
        <ele>161</ele>
        <time>2021-07-04T14:04:45Z</time>
      </trkpt>
      <trkpt lat="44.18321" lon="4.52103">
        <ele>168</ele>
        <time>2021-07-04T14:04:52Z</time>
      </trkpt>
      <trkpt lat="44.18337" lon="4.52073">
        <ele>169</ele>
        <time>2021-07-04T14:04:58Z</time>
      </trkpt>
      <trkpt lat="44.18362" lon="4.5204">
        <ele>166</ele>
        <time>2021-07-04T14:05:06Z</time>
      </trkpt>
      <trkpt lat="44.18375" lon="4.52003">
        <ele>169</ele>
        <time>2021-07-04T14:05:13Z</time>
      </trkpt>
      <trkpt lat="44.18403" lon="4.51983">
        <ele>164</ele>
        <time>2021-07-04T14:05:20Z</time>
      </trkpt>
      <trkpt lat="44.18419" lon="4.51959">
        <ele>164</ele>
        <time>2021-07-04T14:05:26Z</time>
      </trkpt>
      <trkpt lat="44.18472" lon="4.51917">
        <ele>160</ele>
        <time>2021-07-04T14:05:40Z</time>
      </trkpt>
      <trkpt lat="44.18478" lon="4.51876">
        <ele>153</ele>
        <time>2021-07-04T14:05:47Z</time>
      </trkpt>
      <trkpt lat="44.18454" lon="4.5184">
        <ele>155</ele>
        <time>2021-07-04T14:05:55Z</time>
      </trkpt>
      <trkpt lat="44.18428" lon="4.51815">
        <ele>160</ele>
        <time>2021-07-04T14:06:02Z</time>
      </trkpt>
      <trkpt lat="44.18411" lon="4.5181">
        <ele>163</ele>
        <time>2021-07-04T14:06:07Z</time>
      </trkpt>
      <trkpt lat="44.18398" lon="4.51751">
        <ele>162</ele>
        <time>2021-07-04T14:06:17Z</time>
      </trkpt>
      <trkpt lat="44.18388" lon="4.51731">
        <ele>166</ele>
        <time>2021-07-04T14:06:21Z</time>
      </trkpt>
      <trkpt lat="44.18388" lon="4.51701">
        <ele>168</ele>
        <time>2021-07-04T14:06:26Z</time>
      </trkpt>
      <trkpt lat="44.18382" lon="4.51684">
        <ele>171</ele>
        <time>2021-07-04T14:06:29Z</time>
      </trkpt>
      <trkpt lat="44.18386" lon="4.51664">
        <ele>171</ele>
        <time>2021-07-04T14:06:33Z</time>
      </trkpt>
      <trkpt lat="44.18425" lon="4.51668">
        <ele>164</ele>
        <time>2021-07-04T14:06:42Z</time>
      </trkpt>
      <trkpt lat="44.18463" lon="4.51668">
        <ele>163</ele>
        <time>2021-07-04T14:06:51Z</time>
      </trkpt>
      <trkpt lat="44.18495" lon="4.51635">
        <ele>165</ele>
        <time>2021-07-04T14:07:00Z</time>
      </trkpt>
      <trkpt lat="44.18501" lon="4.51595">
        <ele>168</ele>
        <time>2021-07-04T14:07:07Z</time>
      </trkpt>
      <trkpt lat="44.18533" lon="4.51544">
        <ele>161</ele>
        <time>2021-07-04T14:07:18Z</time>
      </trkpt>
      <trkpt lat="44.18541" lon="4.51489">
        <ele>157</ele>
        <time>2021-07-04T14:07:28Z</time>
      </trkpt>
      <trkpt lat="44.1855" lon="4.51462">
        <ele>153</ele>
        <time>2021-07-04T14:07:33Z</time>
      </trkpt>
      <trkpt lat="44.1852" lon="4.51397">
        <ele>153</ele>
        <time>2021-07-04T14:07:45Z</time>
      </trkpt>
      <trkpt lat="44.18535" lon="4.51385">
        <ele>150</ele>
        <time>2021-07-04T14:07:49Z</time>
      </trkpt>
      <trkpt lat="44.18668" lon="4.51513">
        <ele>131</ele>
        <time>2021-07-04T14:08:27Z</time>
      </trkpt>
      <trkpt lat="44.18708" lon="4.516">
        <ele>122</ele>
        <time>2021-07-04T14:08:45Z</time>
      </trkpt>
      <trkpt lat="44.18714" lon="4.51541">
        <ele>120</ele>
        <time>2021-07-04T14:08:55Z</time>
      </trkpt>
      <trkpt lat="44.18725" lon="4.51515">
        <ele>118</ele>
        <time>2021-07-04T14:09:00Z</time>
      </trkpt>
      <trkpt lat="44.18748" lon="4.51567">
        <ele>112</ele>
        <time>2021-07-04T14:09:10Z</time>
      </trkpt>
      <trkpt lat="44.18763" lon="4.51619">
        <ele>110</ele>
        <time>2021-07-04T14:09:19Z</time>
      </trkpt>
      <trkpt lat="44.18795" lon="4.5168">
        <ele>106</ele>
        <time>2021-07-04T14:09:32Z</time>
      </trkpt>
      <trkpt lat="44.18803" lon="4.51691">
        <ele>105</ele>
        <time>2021-07-04T14:09:34Z</time>
      </trkpt>
      <trkpt lat="44.18823" lon="4.51683">
        <ele>104</ele>
        <time>2021-07-04T14:09:39Z</time>
      </trkpt>
      <trkpt lat="44.18822" lon="4.51717">
        <ele>103</ele>
        <time>2021-07-04T14:09:45Z</time>
      </trkpt>
      <trkpt lat="44.18825" lon="4.51793">
        <ele>100</ele>
        <time>2021-07-04T14:09:58Z</time>
      </trkpt>
      <trkpt lat="44.18837" lon="4.5184">
        <ele>100</ele>
        <time>2021-07-04T14:10:06Z</time>
      </trkpt>
      <trkpt lat="44.18865" lon="4.51879">
        <ele>104</ele>
        <time>2021-07-04T14:10:15Z</time>
      </trkpt>
      <trkpt lat="44.18888" lon="4.51942">
        <ele>107</ele>
        <time>2021-07-04T14:10:27Z</time>
      </trkpt>
      <trkpt lat="44.18895" lon="4.52042">
        <ele>105</ele>
        <time>2021-07-04T14:10:44Z</time>
      </trkpt>
      <trkpt lat="44.18919" lon="4.52062">
        <ele>108</ele>
        <time>2021-07-04T14:10:51Z</time>
      </trkpt>
      <trkpt lat="44.18943" lon="4.52055">
        <ele>108</ele>
        <time>2021-07-04T14:10:56Z</time>
      </trkpt>
      <trkpt lat="44.18967" lon="4.5206">
        <ele>108</ele>
        <time>2021-07-04T14:11:02Z</time>
      </trkpt>
      <trkpt lat="44.19008" lon="4.51968">
        <ele>118</ele>
        <time>2021-07-04T14:11:20Z</time>
      </trkpt>
      <trkpt lat="44.19025" lon="4.5197">
        <ele>120</ele>
        <time>2021-07-04T14:11:24Z</time>
      </trkpt>
      <trkpt lat="44.19047" lon="4.52058">
        <ele>113</ele>
        <time>2021-07-04T14:11:40Z</time>
      </trkpt>
      <trkpt lat="44.19055" lon="4.52073">
        <ele>112</ele>
        <time>2021-07-04T14:11:43Z</time>
      </trkpt>
      <trkpt lat="44.1909" lon="4.5211">
        <ele>109</ele>
        <time>2021-07-04T14:11:53Z</time>
      </trkpt>
      <trkpt lat="44.19127" lon="4.52127">
        <ele>102</ele>
        <time>2021-07-04T14:12:02Z</time>
      </trkpt>
      <trkpt lat="44.19176" lon="4.5211">
        <ele>100</ele>
        <time>2021-07-04T14:12:14Z</time>
      </trkpt>
      <trkpt lat="44.19266" lon="4.52052">
        <ele>89</ele>
        <time>2021-07-04T14:12:37Z</time>
      </trkpt>
      <trkpt lat="44.19269" lon="4.52038">
        <ele>90</ele>
        <time>2021-07-04T14:12:40Z</time>
      </trkpt>
      <trkpt lat="44.193" lon="4.51999">
        <ele>90</ele>
        <time>2021-07-04T14:12:49Z</time>
      </trkpt>
      <trkpt lat="44.19335" lon="4.51978">
        <ele>86</ele>
        <time>2021-07-04T14:12:58Z</time>
      </trkpt>
      <trkpt lat="44.19363" lon="4.51976">
        <ele>89</ele>
        <time>2021-07-04T14:13:05Z</time>
      </trkpt>
      <trkpt lat="44.19363" lon="4.51914">
        <ele>98</ele>
        <time>2021-07-04T14:13:15Z</time>
      </trkpt>
      <trkpt lat="44.19374" lon="4.51872">
        <ele>105</ele>
        <time>2021-07-04T14:13:23Z</time>
      </trkpt>
      <trkpt lat="44.19387" lon="4.51832">
        <ele>111</ele>
        <time>2021-07-04T14:13:30Z</time>
      </trkpt>
      <trkpt lat="44.194" lon="4.51843">
        <ele>111</ele>
        <time>2021-07-04T14:13:34Z</time>
      </trkpt>
      <trkpt lat="44.19411" lon="4.51865">
        <ele>109</ele>
        <time>2021-07-04T14:13:38Z</time>
      </trkpt>
      <trkpt lat="44.19418" lon="4.51901">
        <ele>105</ele>
        <time>2021-07-04T14:13:44Z</time>
      </trkpt>
      <trkpt lat="44.19422" lon="4.51967">
        <ele>93</ele>
        <time>2021-07-04T14:13:55Z</time>
      </trkpt>
      <trkpt lat="44.19382" lon="4.51993">
        <ele>87</ele>
        <time>2021-07-04T14:14:06Z</time>
      </trkpt>
      <trkpt lat="44.19383" lon="4.52023">
        <ele>82</ele>
        <time>2021-07-04T14:14:11Z</time>
      </trkpt>
      <trkpt lat="44.19402" lon="4.52044">
        <ele>78</ele>
        <time>2021-07-04T14:14:16Z</time>
      </trkpt>
      <trkpt lat="44.19455" lon="4.52047">
        <ele>72</ele>
        <time>2021-07-04T14:14:29Z</time>
      </trkpt>
      <trkpt lat="44.19482" lon="4.52076">
        <ele>65</ele>
        <time>2021-07-04T14:14:37Z</time>
      </trkpt>
      <trkpt lat="44.19442" lon="4.5215">
        <ele>68</ele>
        <time>2021-07-04T14:14:52Z</time>
      </trkpt>
      <trkpt lat="44.19403" lon="4.52199">
        <ele>68</ele>
        <time>2021-07-04T14:15:04Z</time>
      </trkpt>
      <trkpt lat="44.19312" lon="4.52249">
        <ele>66</ele>
        <time>2021-07-04T14:15:27Z</time>
      </trkpt>
      <trkpt lat="44.19303" lon="4.5225">
        <ele>66</ele>
        <time>2021-07-04T14:15:29Z</time>
      </trkpt>
      <trkpt lat="44.19298" lon="4.52262">
        <ele>66</ele>
        <time>2021-07-04T14:15:32Z</time>
      </trkpt>
      <trkpt lat="44.19371" lon="4.5244">
        <ele>63</ele>
        <time>2021-07-04T14:16:06Z</time>
      </trkpt>
      <trkpt lat="44.19389" lon="4.52423">
        <ele>63</ele>
        <time>2021-07-04T14:16:11Z</time>
      </trkpt>
      <trkpt lat="44.19458" lon="4.52336">
        <ele>64</ele>
        <time>2021-07-04T14:16:33Z</time>
      </trkpt>
      <trkpt lat="44.19511" lon="4.52318">
        <ele>68</ele>
        <time>2021-07-04T14:16:46Z</time>
      </trkpt>
      <trkpt lat="44.19623" lon="4.52336">
        <ele>71</ele>
        <time>2021-07-04T14:17:12Z</time>
      </trkpt>
      <trkpt lat="44.1969" lon="4.52365">
        <ele>76</ele>
        <time>2021-07-04T14:17:28Z</time>
      </trkpt>
      <trkpt lat="44.19823" lon="4.52468">
        <ele>78</ele>
        <time>2021-07-04T14:18:04Z</time>
      </trkpt>
      <trkpt lat="44.19876" lon="4.52564">
        <ele>81</ele>
        <time>2021-07-04T14:18:24Z</time>
      </trkpt>
      <trkpt lat="44.19938" lon="4.52687">
        <ele>80</ele>
        <time>2021-07-04T14:18:49Z</time>
      </trkpt>
      <trkpt lat="44.1996" lon="4.52747">
        <ele>79</ele>
        <time>2021-07-04T14:19:01Z</time>
      </trkpt>
      <trkpt lat="44.19958" lon="4.52801">
        <ele>82</ele>
        <time>2021-07-04T14:19:10Z</time>
      </trkpt>
      <trkpt lat="44.20002" lon="4.53186">
        <ele>85</ele>
        <time>2021-07-04T14:20:15Z</time>
      </trkpt>
      <trkpt lat="44.20012" lon="4.53346">
        <ele>83</ele>
        <time>2021-07-04T14:20:42Z</time>
      </trkpt>
      <trkpt lat="44.20011" lon="4.53388">
        <ele>83</ele>
        <time>2021-07-04T14:20:49Z</time>
      </trkpt>
      <trkpt lat="44.20088" lon="4.53462">
        <ele>79</ele>
        <time>2021-07-04T14:21:11Z</time>
      </trkpt>
      <trkpt lat="44.20142" lon="4.53557">
        <ele>80</ele>
        <time>2021-07-04T14:21:31Z</time>
      </trkpt>
      <trkpt lat="44.20153" lon="4.53932">
        <ele>87</ele>
        <time>2021-07-04T14:22:34Z</time>
      </trkpt>
      <trkpt lat="44.20153" lon="4.54047">
        <ele>91</ele>
        <time>2021-07-04T14:22:53Z</time>
      </trkpt>
      <trkpt lat="44.20163" lon="4.54176">
        <ele>98</ele>
        <time>2021-07-04T14:23:15Z</time>
      </trkpt>
      <trkpt lat="44.20137" lon="4.54237">
        <ele>101</ele>
        <time>2021-07-04T14:23:27Z</time>
      </trkpt>
      <trkpt lat="44.20137" lon="4.54269">
        <ele>103</ele>
        <time>2021-07-04T14:23:32Z</time>
      </trkpt>
      <trkpt lat="44.20146" lon="4.54278">
        <ele>104</ele>
        <time>2021-07-04T14:23:35Z</time>
      </trkpt>
      <trkpt lat="44.20173" lon="4.54233">
        <ele>104</ele>
        <time>2021-07-04T14:23:44Z</time>
      </trkpt>
      <trkpt lat="44.20235" lon="4.54159">
        <ele>102</ele>
        <time>2021-07-04T14:24:03Z</time>
      </trkpt>
      <trkpt lat="44.20296" lon="4.54074">
        <ele>99</ele>
        <time>2021-07-04T14:24:24Z</time>
      </trkpt>
      <trkpt lat="44.2032" lon="4.54065">
        <ele>98</ele>
        <time>2021-07-04T14:24:29Z</time>
      </trkpt>
      <trkpt lat="44.20388" lon="4.5405">
        <ele>99</ele>
        <time>2021-07-04T14:24:46Z</time>
      </trkpt>
      <trkpt lat="44.20463" lon="4.54048">
        <ele>101</ele>
        <time>2021-07-04T14:25:03Z</time>
      </trkpt>
      <trkpt lat="44.20528" lon="4.54003">
        <ele>100</ele>
        <time>2021-07-04T14:25:20Z</time>
      </trkpt>
      <trkpt lat="44.20598" lon="4.53961">
        <ele>101</ele>
        <time>2021-07-04T14:25:38Z</time>
      </trkpt>
      <trkpt lat="44.20685" lon="4.53924">
        <ele>105</ele>
        <time>2021-07-04T14:25:59Z</time>
      </trkpt>
      <trkpt lat="44.20793" lon="4.53906">
        <ele>110</ele>
        <time>2021-07-04T14:26:24Z</time>
      </trkpt>
      <trkpt lat="44.20811" lon="4.53894">
        <ele>110</ele>
        <time>2021-07-04T14:26:29Z</time>
      </trkpt>
      <trkpt lat="44.20836" lon="4.53856">
        <ele>111</ele>
        <time>2021-07-04T14:26:38Z</time>
      </trkpt>
      <trkpt lat="44.20858" lon="4.53808">
        <ele>112</ele>
        <time>2021-07-04T14:26:47Z</time>
      </trkpt>
      <trkpt lat="44.20888" lon="4.53755">
        <ele>111</ele>
        <time>2021-07-04T14:26:59Z</time>
      </trkpt>
      <trkpt lat="44.20939" lon="4.537">
        <ele>111</ele>
        <time>2021-07-04T14:27:14Z</time>
      </trkpt>
      <trkpt lat="44.21012" lon="4.53659">
        <ele>110</ele>
        <time>2021-07-04T14:27:32Z</time>
      </trkpt>
      <trkpt lat="44.21039" lon="4.53626">
        <ele>107</ele>
        <time>2021-07-04T14:27:40Z</time>
      </trkpt>
      <trkpt lat="44.21124" lon="4.53543">
        <ele>104</ele>
        <time>2021-07-04T14:28:05Z</time>
      </trkpt>
      <trkpt lat="44.21167" lon="4.53454">
        <ele>101</ele>
        <time>2021-07-04T14:28:23Z</time>
      </trkpt>
      <trkpt lat="44.21179" lon="4.53354">
        <ele>101</ele>
        <time>2021-07-04T14:28:40Z</time>
      </trkpt>
      <trkpt lat="44.2119" lon="4.53288">
        <ele>101</ele>
        <time>2021-07-04T14:28:51Z</time>
      </trkpt>
      <trkpt lat="44.21222" lon="4.53164">
        <ele>104</ele>
        <time>2021-07-04T14:29:13Z</time>
      </trkpt>
      <trkpt lat="44.21183" lon="4.5315">
        <ele>102</ele>
        <time>2021-07-04T14:29:22Z</time>
      </trkpt>
      <trkpt lat="44.21163" lon="4.53153">
        <ele>101</ele>
        <time>2021-07-04T14:29:27Z</time>
      </trkpt>
      <trkpt lat="44.21126" lon="4.53136">
        <ele>97</ele>
        <time>2021-07-04T14:29:36Z</time>
      </trkpt>
      <trkpt lat="44.21168" lon="4.53016">
        <ele>97</ele>
        <time>2021-07-04T14:29:58Z</time>
      </trkpt>
      <trkpt lat="44.21193" lon="4.52974">
        <ele>96</ele>
        <time>2021-07-04T14:30:08Z</time>
      </trkpt>
      <trkpt lat="44.21213" lon="4.52916">
        <ele>92</ele>
        <time>2021-07-04T14:30:18Z</time>
      </trkpt>
      <trkpt lat="44.21252" lon="4.52931">
        <ele>94</ele>
        <time>2021-07-04T14:30:28Z</time>
      </trkpt>
      <trkpt lat="44.21288" lon="4.52927">
        <ele>92</ele>
        <time>2021-07-04T14:30:36Z</time>
      </trkpt>
      <trkpt lat="44.21309" lon="4.52893">
        <ele>90</ele>
        <time>2021-07-04T14:30:44Z</time>
      </trkpt>
      <trkpt lat="44.21364" lon="4.52722">
        <ele>90</ele>
        <time>2021-07-04T14:31:15Z</time>
      </trkpt>
      <trkpt lat="44.21385" lon="4.52717">
        <ele>90</ele>
        <time>2021-07-04T14:31:20Z</time>
      </trkpt>
      <trkpt lat="44.21426" lon="4.52739">
        <ele>91</ele>
        <time>2021-07-04T14:31:30Z</time>
      </trkpt>
      <trkpt lat="44.2147" lon="4.52711">
        <ele>91</ele>
        <time>2021-07-04T14:31:42Z</time>
      </trkpt>
      <trkpt lat="44.21528" lon="4.52665">
        <ele>92</ele>
        <time>2021-07-04T14:31:57Z</time>
      </trkpt>
      <trkpt lat="44.21571" lon="4.5262">
        <ele>93</ele>
        <time>2021-07-04T14:32:10Z</time>
      </trkpt>
      <trkpt lat="44.21533" lon="4.52573">
        <ele>91</ele>
        <time>2021-07-04T14:32:22Z</time>
      </trkpt>
      <trkpt lat="44.21518" lon="4.52511">
        <ele>90</ele>
        <time>2021-07-04T14:32:33Z</time>
      </trkpt>
      <trkpt lat="44.21533" lon="4.52383">
        <ele>87</ele>
        <time>2021-07-04T14:32:54Z</time>
      </trkpt>
      <trkpt lat="44.21547" lon="4.52311">
        <ele>87</ele>
        <time>2021-07-04T14:33:07Z</time>
      </trkpt>
      <trkpt lat="44.21576" lon="4.52241">
        <ele>88</ele>
        <time>2021-07-04T14:33:20Z</time>
      </trkpt>
      <trkpt lat="44.216" lon="4.52208">
        <ele>86</ele>
        <time>2021-07-04T14:33:28Z</time>
      </trkpt>
      <trkpt lat="44.21685" lon="4.51983">
        <ele>87</ele>
        <time>2021-07-04T14:34:11Z</time>
      </trkpt>
      <trkpt lat="44.21692" lon="4.51948">
        <ele>87</ele>
        <time>2021-07-04T14:34:17Z</time>
      </trkpt>
      <trkpt lat="44.217" lon="4.51868">
        <ele>86</ele>
        <time>2021-07-04T14:34:30Z</time>
      </trkpt>
      <trkpt lat="44.21687" lon="4.51858">
        <ele>86</ele>
        <time>2021-07-04T14:34:34Z</time>
      </trkpt>
      <trkpt lat="44.21664" lon="4.51854">
        <ele>85</ele>
        <time>2021-07-04T14:34:39Z</time>
      </trkpt>
      <trkpt lat="44.21645" lon="4.51807">
        <ele>82</ele>
        <time>2021-07-04T14:34:48Z</time>
      </trkpt>
      <trkpt lat="44.21624" lon="4.51805">
        <ele>81</ele>
        <time>2021-07-04T14:34:53Z</time>
      </trkpt>
      <trkpt lat="44.2157" lon="4.51823">
        <ele>79</ele>
        <time>2021-07-04T14:35:06Z</time>
      </trkpt>
      <trkpt lat="44.21523" lon="4.51847">
        <ele>78</ele>
        <time>2021-07-04T14:35:18Z</time>
      </trkpt>
      <trkpt lat="44.21521" lon="4.51827">
        <ele>77</ele>
        <time>2021-07-04T14:35:21Z</time>
      </trkpt>
      <trkpt lat="44.21533" lon="4.51695">
        <ele>73</ele>
        <time>2021-07-04T14:35:44Z</time>
      </trkpt>
      <trkpt lat="44.21537" lon="4.51681">
        <ele>72</ele>
        <time>2021-07-04T14:35:46Z</time>
      </trkpt>
      <trkpt lat="44.21577" lon="4.51633">
        <ele>72</ele>
        <time>2021-07-04T14:35:58Z</time>
      </trkpt>
      <trkpt lat="44.21579" lon="4.51505">
        <ele>81</ele>
        <time>2021-07-04T14:36:20Z</time>
      </trkpt>
      <trkpt lat="44.21565" lon="4.5149">
        <ele>83</ele>
        <time>2021-07-04T14:36:24Z</time>
      </trkpt>
      <trkpt lat="44.21533" lon="4.5148">
        <ele>82</ele>
        <time>2021-07-04T14:36:32Z</time>
      </trkpt>
      <trkpt lat="44.21522" lon="4.51471">
        <ele>83</ele>
        <time>2021-07-04T14:36:35Z</time>
      </trkpt>
      <trkpt lat="44.21518" lon="4.51378">
        <ele>90</ele>
        <time>2021-07-04T14:36:50Z</time>
      </trkpt>
      <trkpt lat="44.2155" lon="4.5135">
        <ele>97</ele>
        <time>2021-07-04T14:36:59Z</time>
      </trkpt>
      <trkpt lat="44.21579" lon="4.51329">
        <ele>104</ele>
        <time>2021-07-04T14:37:07Z</time>
      </trkpt>
      <trkpt lat="44.21625" lon="4.51281">
        <ele>109</ele>
        <time>2021-07-04T14:37:20Z</time>
      </trkpt>
      <trkpt lat="44.21682" lon="4.51252">
        <ele>113</ele>
        <time>2021-07-04T14:37:34Z</time>
      </trkpt>
      <trkpt lat="44.21686" lon="4.5124">
        <ele>112</ele>
        <time>2021-07-04T14:37:36Z</time>
      </trkpt>
      <trkpt lat="44.21769" lon="4.51178">
        <ele>113</ele>
        <time>2021-07-04T14:37:58Z</time>
      </trkpt>
      <trkpt lat="44.21766" lon="4.51147">
        <ele>112</ele>
        <time>2021-07-04T14:38:04Z</time>
      </trkpt>
      <trkpt lat="44.21789" lon="4.51063">
        <ele>113</ele>
        <time>2021-07-04T14:38:19Z</time>
      </trkpt>
      <trkpt lat="44.21779" lon="4.51041">
        <ele>114</ele>
        <time>2021-07-04T14:38:23Z</time>
      </trkpt>
      <trkpt lat="44.21752" lon="4.51032">
        <ele>113</ele>
        <time>2021-07-04T14:38:30Z</time>
      </trkpt>
      <trkpt lat="44.21724" lon="4.51035">
        <ele>112</ele>
        <time>2021-07-04T14:38:36Z</time>
      </trkpt>
      <trkpt lat="44.21633" lon="4.50997">
        <ele>113</ele>
        <time>2021-07-04T14:38:58Z</time>
      </trkpt>
      <trkpt lat="44.21583" lon="4.5096">
        <ele>116</ele>
        <time>2021-07-04T14:39:11Z</time>
      </trkpt>
      <trkpt lat="44.21523" lon="4.5091">
        <ele>119</ele>
        <time>2021-07-04T14:39:28Z</time>
      </trkpt>
      <trkpt lat="44.21502" lon="4.50928">
        <ele>116</ele>
        <time>2021-07-04T14:39:34Z</time>
      </trkpt>
      <trkpt lat="44.21477" lon="4.50882">
        <ele>116</ele>
        <time>2021-07-04T14:39:43Z</time>
      </trkpt>
      <trkpt lat="44.21473" lon="4.50801">
        <ele>117</ele>
        <time>2021-07-04T14:39:57Z</time>
      </trkpt>
      <trkpt lat="44.21492" lon="4.50774">
        <ele>120</ele>
        <time>2021-07-04T14:40:03Z</time>
      </trkpt>
      <trkpt lat="44.21494" lon="4.50763">
        <ele>120</ele>
        <time>2021-07-04T14:40:05Z</time>
      </trkpt>
      <trkpt lat="44.2145" lon="4.50725">
        <ele>118</ele>
        <time>2021-07-04T14:40:17Z</time>
      </trkpt>
      <trkpt lat="44.21383" lon="4.50653">
        <ele>117</ele>
        <time>2021-07-04T14:40:37Z</time>
      </trkpt>
      <trkpt lat="44.2136" lon="4.50635">
        <ele>117</ele>
        <time>2021-07-04T14:40:43Z</time>
      </trkpt>
      <trkpt lat="44.21315" lon="4.50609">
        <ele>114</ele>
        <time>2021-07-04T14:40:54Z</time>
      </trkpt>
      <trkpt lat="44.21286" lon="4.50588">
        <ele>114</ele>
        <time>2021-07-04T14:41:02Z</time>
      </trkpt>
      <trkpt lat="44.21256" lon="4.50528">
        <ele>117</ele>
        <time>2021-07-04T14:41:14Z</time>
      </trkpt>
      <trkpt lat="44.21227" lon="4.50477">
        <ele>117</ele>
        <time>2021-07-04T14:41:25Z</time>
      </trkpt>
      <trkpt lat="44.21221" lon="4.50439">
        <ele>118</ele>
        <time>2021-07-04T14:41:32Z</time>
      </trkpt>
      <trkpt lat="44.21224" lon="4.50361">
        <ele>118</ele>
        <time>2021-07-04T14:41:45Z</time>
      </trkpt>
      <trkpt lat="44.21239" lon="4.50308">
        <ele>117</ele>
        <time>2021-07-04T14:41:54Z</time>
      </trkpt>
      <trkpt lat="44.21257" lon="4.50212">
        <ele>114</ele>
        <time>2021-07-04T14:42:11Z</time>
      </trkpt>
      <trkpt lat="44.21295" lon="4.50154">
        <ele>117</ele>
        <time>2021-07-04T14:42:24Z</time>
      </trkpt>
      <trkpt lat="44.21295" lon="4.50121">
        <ele>115</ele>
        <time>2021-07-04T14:42:30Z</time>
      </trkpt>
      <trkpt lat="44.21322" lon="4.50079">
        <ele>118</ele>
        <time>2021-07-04T14:42:39Z</time>
      </trkpt>
      <trkpt lat="44.2132" lon="4.50065">
        <ele>117</ele>
        <time>2021-07-04T14:42:41Z</time>
      </trkpt>
      <trkpt lat="44.21309" lon="4.50045">
        <ele>114</ele>
        <time>2021-07-04T14:42:46Z</time>
      </trkpt>
      <trkpt lat="44.21319" lon="4.49967">
        <ele>114</ele>
        <time>2021-07-04T14:42:59Z</time>
      </trkpt>
      <trkpt lat="44.21343" lon="4.49898">
        <ele>117</ele>
        <time>2021-07-04T14:43:12Z</time>
      </trkpt>
      <trkpt lat="44.2136" lon="4.49862">
        <ele>120</ele>
        <time>2021-07-04T14:43:19Z</time>
      </trkpt>
      <trkpt lat="44.21375" lon="4.49776">
        <ele>119</ele>
        <time>2021-07-04T14:43:34Z</time>
      </trkpt>
      <trkpt lat="44.21379" lon="4.49735">
        <ele>118</ele>
        <time>2021-07-04T14:43:41Z</time>
      </trkpt>
      <trkpt lat="44.21406" lon="4.49689">
        <ele>123</ele>
        <time>2021-07-04T14:43:51Z</time>
      </trkpt>
      <trkpt lat="44.21458" lon="4.49621">
        <ele>129</ele>
        <time>2021-07-04T14:44:07Z</time>
      </trkpt>
      <trkpt lat="44.21462" lon="4.49574">
        <ele>126</ele>
        <time>2021-07-04T14:44:15Z</time>
      </trkpt>
      <trkpt lat="44.21473" lon="4.49525">
        <ele>122</ele>
        <time>2021-07-04T14:44:24Z</time>
      </trkpt>
      <trkpt lat="44.21516" lon="4.49535">
        <ele>126</ele>
        <time>2021-07-04T14:44:34Z</time>
      </trkpt>
      <trkpt lat="44.21548" lon="4.49514">
        <ele>126</ele>
        <time>2021-07-04T14:44:42Z</time>
      </trkpt>
      <trkpt lat="44.21573" lon="4.49447">
        <ele>124</ele>
        <time>2021-07-04T14:44:55Z</time>
      </trkpt>
      <trkpt lat="44.21593" lon="4.49378">
        <ele>127</ele>
        <time>2021-07-04T14:45:07Z</time>
      </trkpt>
      <trkpt lat="44.21638" lon="4.49344">
        <ele>136</ele>
        <time>2021-07-04T14:45:19Z</time>
      </trkpt>
      <trkpt lat="44.2168" lon="4.49319">
        <ele>143</ele>
        <time>2021-07-04T14:45:30Z</time>
      </trkpt>
      <trkpt lat="44.21693" lon="4.49301">
        <ele>142</ele>
        <time>2021-07-04T14:45:34Z</time>
      </trkpt>
      <trkpt lat="44.21788" lon="4.49221">
        <ele>145</ele>
        <time>2021-07-04T14:46:00Z</time>
      </trkpt>
      <trkpt lat="44.21797" lon="4.49196">
        <ele>145</ele>
        <time>2021-07-04T14:46:05Z</time>
      </trkpt>
      <trkpt lat="44.21766" lon="4.49141">
        <ele>137</ele>
        <time>2021-07-04T14:46:17Z</time>
      </trkpt>
      <trkpt lat="44.21739" lon="4.4911">
        <ele>132</ele>
        <time>2021-07-04T14:46:25Z</time>
      </trkpt>
      <trkpt lat="44.21741" lon="4.49098">
        <ele>132</ele>
        <time>2021-07-04T14:46:27Z</time>
      </trkpt>
      <trkpt lat="44.21793" lon="4.49029">
        <ele>128</ele>
        <time>2021-07-04T14:46:44Z</time>
      </trkpt>
      <trkpt lat="44.21812" lon="4.48984">
        <ele>119</ele>
        <time>2021-07-04T14:46:52Z</time>
      </trkpt>
      <trkpt lat="44.21841" lon="4.4895">
        <ele>112</ele>
        <time>2021-07-04T14:47:01Z</time>
      </trkpt>
      <trkpt lat="44.21868" lon="4.48924">
        <ele>108</ele>
        <time>2021-07-04T14:47:09Z</time>
      </trkpt>
      <trkpt lat="44.21892" lon="4.48894">
        <ele>106</ele>
        <time>2021-07-04T14:47:16Z</time>
      </trkpt>
      <trkpt lat="44.21893" lon="4.4886">
        <ele>103</ele>
        <time>2021-07-04T14:47:22Z</time>
      </trkpt>
      <trkpt lat="44.21847" lon="4.48748">
        <ele>92</ele>
        <time>2021-07-04T14:47:44Z</time>
      </trkpt>
      <trkpt lat="44.21872" lon="4.48667">
        <ele>91</ele>
        <time>2021-07-04T14:47:58Z</time>
      </trkpt>
    </trkseg>
  </trk>
</gpx>